DBBB/COO METAR and TAF weather

Enter ICAO airport designator
Station Type Date Time Source
DBBB METAR 2018/04/26 15:00 UTC NOAA

DBBB 261500Z 20009KT 9999 FEW013 30/24 Q1009 NOSIG


Station Type Date Time Source
DBBB Decoded METAR 2018/04/26 15:00 UTC NOAA

Cotonou, Benin (DBBB) 06-21N 002-23E 9M
Apr 26, 2018 - 11:00 AM EDT / 2018.04.26 1500 UTC
Wind: from the SSW (200 degrees) at 10 MPH (9 KT):0
Visibility: greater than 7 mile(s):0
Sky conditions: mostly clear
Temperature: 86 F (30 C)
Heat index: 95.0 F (35.0 C):1
Dew Point: 75 F (24 C)
Relative Humidity: 70%
Pressure (altimeter): 29.80 in. Hg (1009 hPa)
ob: DBBB 261500Z 20009KT 9999 FEW013 30/24 Q1009 NOSIG
cycle: 15

Station Type Date Time Source
DBBB TAF 2018/04/26 12:33 UTC NOAA

TAF TAF DBBB 261100Z 2612/2718 22010KT 9999 SCT013
TEMPO 2614/2619 TS BKN012 FEW023CB PROB30
TEMPO 2622/2704 TS BKN010 FEW023CB
TEMPO 2714/2718 BKN012 FEW023CB


Example: see airport list